Dulles, Virginia
Current Conditions -  °F | °C
As of 6:52 AM on Monday 24 Nov 2014 (Local Time) from KIAD Reporting Station
Broken Clouds Broken Clouds  
Wind Chill: 61°   Ceiling: 2400
Heat Index: 61°   Visibility: 10mi
Dew Point: 59°   Wind: 7mph
Humidity: 93%   Direction: 180°S
Pressure: 29.66"   Gusts: NA
Location:  38.94°N, 77.46°W
Report Text: KIAD 241152Z 18006KT 10SM BKN024 BKN040 16/15 A2966 RMK AO2 SLP041 P0001 60009 70041 T01610150 10167 20139 53004 $
Loading
Personal Weather Stations






























Interactive Weather Map New forecast layout! Learn more

10-Day Weather Forecast

Advertisements
Track Severe Weather on mobile